Time;durP1;ratioP1;P1;durP2;ratioP2;P2;SDS_P1;SDS_P2;PMS_P1;PMS_P2;Temp;Humidity;BMP_temperature;BMP_pressure;BME280_temperature;BME280_humidity;BME280_pressure;Samples;Min_cycle;Max_cycle;Signal;HPM_P1;HPM_P2
2022/04/17 00:01:31;;;;;;;5.63;4.18;;;;;;;17.13;40.26;94463.03;5026170;28;20030;-88
2022/04/17 00:03:56;;;;;;;4.57;3.80;;;;;;;17.14;40.23;94470.00;5010402;28;20384;-86
2022/04/17 00:06:22;;;;;;;4.88;3.92;;;;;;;17.13;40.02;94462.28;5016686;28;20060;-87
2022/04/17 00:08:47;;;;;;;6.15;4.18;;;;;;;17.13;40.21;94454.84;5011649;28;20037;-87
2022/04/17 00:11:12;;;;;;;7.10;4.28;;;;;;;17.13;40.31;94451.34;5027000;28;20038;-87
2022/04/17 00:13:38;;;;;;;4.53;4.03;;;;;;;17.11;40.33;94451.84;5029764;28;20503;-86
2022/04/17 00:16:04;;;;;;;5.25;4.05;;;;;;;17.13;40.22;94443.91;5017844;28;20029;-86
2022/04/17 00:18:29;;;;;;;5.25;4.47;;;;;;;17.14;40.36;94441.94;5016658;28;20048;-87
2022/04/17 00:20:54;;;;;;;4.75;3.72;;;;;;;17.12;40.02;94434.22;5013694;28;20053;-87
2022/04/17 00:23:20;;;;;;;5.20;4.18;;;;;;;17.11;40.23;94432.72;5018559;28;20628;-86
2022/04/17 00:25:45;;;;;;;4.15;3.75;;;;;;;17.11;40.32;94437.41;5033012;28;20498;-87
2022/04/17 00:28:11;;;;;;;4.68;3.42;;;;;;;17.10;39.81;94425.75;5048351;28;20021;-87
2022/04/17 00:30:36;;;;;;;6.25;3.97;;;;;;;17.09;39.84;94432.47;5033633;28;20029;-87
2022/04/17 00:33:02;;;;;;;5.38;4.00;;;;;;;17.10;39.87;94435.94;5029427;28;20477;-87
2022/04/17 00:35:27;;;;;;;4.93;3.88;;;;;;;17.09;39.86;94424.25;5015489;28;20033;-87
2022/04/17 00:37:53;;;;;;;5.43;3.65;;;;;;;17.11;40.40;94429.22;5049982;28;20041;-86
2022/04/17 00:40:18;;;;;;;4.38;3.65;;;;;;;17.10;39.96;94422.28;5012452;28;20492;-87
2022/04/17 00:42:44;;;;;;;6.22;4.15;;;;;;;17.10;39.94;94428.47;5013202;28;20496;-87
2022/04/17 00:45:10;;;;;;;4.13;3.33;;;;;;;17.09;40.18;94412.59;5012277;28;20034;-87
2022/04/17 00:47:36;;;;;;;5.32;3.83;;;;;;;17.08;40.24;94422.00;5022453;28;20045;-87
2022/04/17 00:50:02;;;;;;;5.88;3.63;;;;;;;17.08;40.06;94414.56;5013171;28;20033;-87
2022/04/17 00:52:28;;;;;;;4.15;3.75;;;;;;;17.07;40.22;94421.25;5012182;28;20041;-87
2022/04/17 00:54:54;;;;;;;4.65;3.95;;;;;;;17.06;40.03;94408.81;5013441;28;20044;-89
2022/04/17 00:57:19;;;;;;;5.63;3.88;;;;;;;17.08;40.08;94420.03;4994944;28;20456;-88
2022/04/17 00:59:46;;;;;;;4.43;3.60;;;;;;;17.06;40.27;94408.06;5036725;28;20040;-87
2022/04/17 01:02:14;;;;;;;3.97;3.50;;;;;;;17.08;39.93;94419.28;5031691;28;20057;-86
2022/04/17 01:04:39;;;;;;;4.22;3.60;;;;;;;17.07;40.17;94413.06;5032991;28;20089;-86
2022/04/17 01:07:05;;;;;;;4.85;3.28;;;;;;;17.07;40.01;94404.13;5047221;28;20048;-87
2022/04/17 01:09:30;;;;;;;6.20;3.95;;;;;;;17.07;39.89;94399.41;5032514;28;20037;-87
2022/04/17 01:11:56;;;;;;;5.03;4.30;;;;;;;17.08;39.80;94397.41;5013732;28;20406;-86
2022/04/17 01:14:21;;;;;;;4.93;3.70;;;;;;;17.05;40.19;94401.84;5049842;28;20040;-87
2022/04/17 01:16:47;;;;;;;5.15;3.63;;;;;;;17.05;39.57;94393.66;5014849;28;20553;-89
2022/04/17 01:19:12;;;;;;;4.10;3.47;;;;;;;17.06;40.13;94388.94;5031004;28;20025;-88
2022/04/17 01:21:39;;;;;;;3.50;3.03;;;;;;;17.06;39.92;94389.69;5004277;28;20033;-88
2022/04/17 01:26:58;;;;;;;3.90;3.40;;;;;;;17.05;40.17;94396.38;5033443;28;20040;-87
2022/04/17 01:29:34;;;;;;;5.10;3.55;;;;;;;17.05;40.10;94392.91;5031689;28;20036;-87
2022/04/17 01:32:01;;;;;;;3.67;3.10;;;;;;;17.04;40.08;94396.88;5048792;28;20037;-87
2022/04/17 01:34:27;;;;;;;4.97;3.80;;;;;;;17.04;39.89;94396.88;5032342;28;20534;-87
2022/04/17 01:36:52;;;;;;;3.40;2.97;;;;;;;17.04;40.01;94381.22;5014664;28;20041;-87
2022/04/17 01:39:18;;;;;;;3.88;3.17;;;;;;;17.02;40.01;94378.22;5030783;28;20037;-86
2022/04/17 01:41:44;;;;;;;3.97;3.28;;;;;;;17.04;40.09;94383.97;5030956;28;20044;-87
2022/04/17 01:44:09;;;;;;;3.90;3.50;;;;;;;17.03;40.25;94378.97;5011191;28;20049;-87
2022/04/17 01:46:35;;;;;;;4.65;3.55;;;;;;;17.03;40.13;94384.44;5011580;28;20045;-88
2022/04/17 01:49:01;;;;;;;4.00;3.20;;;;;;;17.01;40.11;94379.44;5011403;28;20237;-87
2022/04/17 01:51:27;;;;;;;4.88;3.30;;;;;;;17.03;39.77;94382.47;5011285;28;20274;-88
2022/04/17 01:53:52;;;;;;;4.57;3.22;;;;;;;17.00;39.72;94375.22;4995273;28;20040;-86
2022/04/17 01:56:18;;;;;;;3.13;2.78;;;;;;;17.02;39.90;94375.50;5005227;28;20056;-87
2022/04/17 01:58:44;;;;;;;5.00;3.40;;;;;;;17.02;40.18;94374.75;5013885;28;20040;-87
2022/04/17 02:01:09;;;;;;;3.85;3.13;;;;;;;16.99;39.90;94370.97;5026786;28;20032;-86
2022/04/17 02:03:35;;;;;;;4.03;3.05;;;;;;;17.00;40.00;94369.75;5011579;28;20044;-87
2022/04/17 02:06:00;;;;;;;3.50;3.08;;;;;;;16.99;39.91;94362.78;4990277;28;20041;-87
2022/04/17 02:08:28;;;;;;;3.80;3.40;;;;;;;16.99;39.99;94354.59;5010437;28;20033;-88
2022/04/17 02:10:54;;;;;;;3.65;2.90;;;;;;;17.00;39.91;94352.59;5011867;28;20480;-87
2022/04/17 02:13:19;;;;;;;3.33;3.03;;;;;;;16.99;39.78;94360.06;4996336;28;20045;-87
2022/04/17 02:15:45;;;;;;;4.38;3.40;;;;;;;16.98;40.17;94352.34;5015022;28;20037;-89
2022/04/17 02:18:11;;;;;;;3.92;3.55;;;;;;;16.99;39.67;94353.84;4997459;28;20033;-87
2022/04/17 02:20:37;;;;;;;3.75;3.35;;;;;;;16.98;39.74;94344.91;5011701;28;20083;-89
2022/04/17 02:23:03;;;;;;;4.07;3.20;;;;;;;16.97;40.00;94345.38;4994163;28;20033;-88
2022/04/17 02:25:29;;;;;;;3.50;3.17;;;;;;;16.98;39.92;94344.13;5029580;28;20048;-87
2022/04/17 02:27:54;;;;;;;3.50;2.97;;;;;;;16.98;39.86;94338.69;5010042;28;20111;-89
2022/04/17 02:30:19;;;;;;;3.85;2.90;;;;;;;16.98;40.08;94338.69;4994538;28;20459;-88
2022/04/17 02:32:46;;;;;;;4.28;3.40;;;;;;;16.96;40.12;94327.47;5010530;28;20038;-87
2022/04/17 02:35:12;;;;;;;3.03;2.60;;;;;;;16.97;39.81;94329.72;5010705;28;20034;-87
2022/04/17 02:37:37;;;;;;;3.60;3.17;;;;;;;16.96;39.92;94320.03;4995468;28;20045;-88
2022/04/17 02:40:03;;;;;;;4.22;2.78;;;;;;;16.97;39.99;94318.06;4997156;28;20029;-88
2022/04/17 02:42:28;;;;;;;3.95;3.05;;;;;;;16.94;39.95;94308.84;5014595;28;20120;-87
2022/04/17 02:44:54;;;;;;;4.40;2.90;;;;;;;16.96;39.92;94305.63;5014775;28;20035;-87
2022/04/17 02:50:04;;;;;;;3.95;2.75;;;;;;;16.94;40.00;94313.53;5032558;28;20040;-87
2022/04/17 02:52:30;;;;;;;3.95;2.90;;;;;;;16.94;39.88;94319.75;4997418;28;20092;-87
2022/04/17 02:54:55;;;;;;;3.45;3.08;;;;;;;16.94;39.55;94317.03;5013307;28;20530;-89
2022/04/17 02:57:21;;;;;;;3.08;2.80;;;;;;;16.94;39.80;94338.88;5012307;28;20577;-87
2022/04/17 02:59:46;;;;;;;3.33;2.75;;;;;;;16.95;39.99;94334.91;4995782;28;20056;-87
2022/04/17 03:07:39;;;;;;;3.28;2.80;;;;;;;16.94;39.73;94327.97;4998598;28;20048;-87
2022/04/17 03:10:05;;;;;;;4.50;3.28;;;;;;;16.93;39.67;94322.97;4993962;28;20314;-87
2022/04/17 03:12:31;;;;;;;3.63;2.92;;;;;;;16.94;40.06;94316.28;5010044;28;20057;-87
2022/04/17 03:14:56;;;;;;;2.83;2.58;;;;;;;16.93;39.87;94320.25;4994228;28;20384;-88
2022/04/17 03:17:21;;;;;;;3.05;2.75;;;;;;;16.94;40.09;94319.00;4976841;28;20070;-87
2022/04/17 03:19:47;;;;;;;2.80;2.45;;;;;;;16.94;39.65;94324.47;5010202;28;20487;-87
2022/04/17 03:22:12;;;;;;;3.63;2.75;;;;;;;16.94;39.56;94324.47;4990175;28;20044;-87
2022/04/17 03:24:38;;;;;;;3.05;2.33;;;;;;;16.92;39.47;94321.47;4962528;28;20046;-87
2022/04/17 03:27:03;;;;;;;3.80;2.83;;;;;;;16.91;39.63;94323.44;4972736;28;20562;-88
2022/04/17 03:29:29;;;;;;;3.17;2.85;;;;;;;16.91;39.73;94326.19;4958049;28;20042;-87
2022/04/17 03:31:54;;;;;;;4.03;2.75;;;;;;;16.93;39.89;94309.31;4958714;28;20092;-87
2022/04/17 03:34:19;;;;;;;3.08;2.75;;;;;;;16.93;39.40;94312.78;4977035;28;20107;-86
2022/04/17 03:36:46;;;;;;;3.10;2.72;;;;;;;16.91;40.02;94314.50;4985689;28;20429;-87
2022/04/17 03:39:12;;;;;;;3.95;2.85;;;;;;;16.91;39.84;94314.50;4974338;28;20250;-87
2022/04/17 03:41:37;;;;;;;3.38;2.55;;;;;;;16.91;39.91;94311.78;4971469;28;20042;-87
2022/04/17 03:44:03;;;;;;;2.88;2.58;;;;;;;16.91;39.53;94315.25;4976068;28;20030;-87
2022/04/17 03:46:29;;;;;;;3.22;2.60;;;;;;;16.89;39.62;94314.25;4986244;28;20037;-87
2022/04/17 03:48:54;;;;;;;3.03;2.70;;;;;;;16.92;39.75;94313.28;4989385;28;20732;-87
2022/04/17 03:51:20;;;;;;;2.75;2.53;;;;;;;16.88;39.58;94308.03;4976740;28;20042;-88
2022/04/17 03:53:45;;;;;;;3.38;2.90;;;;;;;16.89;39.52;94306.78;4994586;28;20069;-87
2022/04/17 03:56:10;;;;;;;2.85;2.45;;;;;;;16.89;39.49;94304.06;4976075;28;20029;-87
2022/04/17 03:58:36;;;;;;;3.05;2.75;;;;;;;16.89;39.62;94295.88;4997244;28;20045;-86
2022/04/17 04:01:01;;;;;;;3.65;2.60;;;;;;;16.87;39.58;94295.63;4993013;28;20419;-87
2022/04/17 04:03:27;;;;;;;3.30;2.75;;;;;;;16.89;39.85;94293.13;4961819;28;20050;-87
2022/04/17 04:05:52;;;;;;;2.80;2.30;;;;;;;16.88;39.50;94282.72;4972365;28;20038;-87
2022/04/17 04:08:18;;;;;;;3.25;2.83;;;;;;;16.87;39.66;94292.88;5012742;28;20474;-87
2022/04/17 04:10:44;;;;;;;3.30;2.60;;;;;;;16.86;39.56;94293.38;4997737;28;20473;-88
2022/04/17 04:13:09;;;;;;;7.03;2.92;;;;;;;16.87;39.79;94284.69;5021368;28;20086;-88
2022/04/17 04:15:34;;;;;;;3.47;2.58;;;;;;;16.89;39.50;94286.94;5016985;28;20047;-88
2022/04/17 04:18:00;;;;;;;3.65;3.08;;;;;;;16.88;39.59;94274.53;5049688;28;20380;-87
2022/04/17 04:20:25;;;;;;;3.05;2.70;;;;;;;16.88;39.56;94286.19;5031599;28;20063;-88
2022/04/17 04:22:51;;;;;;;2.63;2.42;;;;;;;16.87;39.69;94283.94;4997170;28;20033;-88
2022/04/17 04:25:16;;;;;;;3.95;2.60;;;;;;;16.87;39.59;94287.44;5018393;28;20045;-86
2022/04/17 04:30:26;;;;;;;2.83;2.55;;;;;;;16.86;39.47;94285.91;5015588;28;20115;-87
2022/04/17 04:32:53;;;;;;;2.33;2.13;;;;;;;16.86;39.51;94285.16;5033338;28;20390;-86
2022/04/17 04:35:18;;;;;;;3.13;2.60;;;;;;;16.85;39.54;94278.22;5049062;28;20060;-90
2022/04/17 04:37:44;;;;;;;2.70;2.50;;;;;;;16.86;39.50;94294.13;5031681;28;20513;-87
2022/04/17 04:40:10;;;;;;;4.35;2.90;;;;;;;16.85;39.77;94286.41;5027478;28;20037;-88
2022/04/17 04:42:37;;;;;;;4.00;2.45;;;;;;;16.85;39.46;94292.59;5029556;28;20072;-87
2022/04/17 04:47:46;;;;;;;3.97;3.10;;;;;;;16.86;39.45;94287.91;5049515;28;20429;-87
2022/04/17 04:50:12;;;;;;;2.70;2.42;;;;;;;16.85;39.18;94292.59;5048434;28;20493;-87
2022/04/17 04:52:37;;;;;;;4.57;2.65;;;;;;;16.85;39.72;94289.88;5016149;28;20398;-88
2022/04/17 04:55:04;;;;;;;6.50;2.75;;;;;;;16.85;39.85;94283.66;5029082;28;20567;-86
2022/04/17 04:57:30;;;;;;;2.88;2.63;;;;;;;16.84;39.81;94288.38;5031842;28;20044;-88
2022/04/17 04:59:55;;;;;;;4.60;2.75;;;;;;;16.85;39.84;94278.22;5033014;28;20033;-87
2022/04/17 05:02:21;;;;;;;3.85;3.42;;;;;;;16.85;39.72;94278.97;5031185;28;20462;-87
2022/04/17 05:04:46;;;;;;;8.10;3.10;;;;;;;16.85;39.79;94281.69;5032854;28;20026;-87
2022/04/17 05:07:12;;;;;;;6.28;2.88;;;;;;;16.84;39.61;94279.44;5031163;28;20083;-87
2022/04/17 05:09:37;;;;;;;5.82;2.97;;;;;;;16.85;39.57;94280.94;5029205;28;20036;-87
2022/04/17 05:12:04;;;;;;;3.30;2.78;;;;;;;16.84;39.48;94285.66;5012100;28;20034;-86
2022/04/17 05:14:29;;;;;;;8.35;3.40;;;;;;;16.84;39.58;94276.72;5011263;28;20034;-87
2022/04/17 05:16:55;;;;;;;4.30;3.30;;;;;;;16.85;39.65;94278.97;5028668;28;20066;-88
2022/04/17 05:19:27;;;;;;;6.20;3.03;;;;;;;16.84;39.71;94285.66;5044579;28;20033;-87
2022/04/17 05:21:57;;;;;;;7.20;3.22;;;;;;;16.82;39.87;94268.25;5033176;28;20398;-87
2022/04/17 05:24:23;;;;;;;5.80;3.13;;;;;;;16.85;39.40;94281.69;5016305;28;20106;-86
2022/04/17 05:26:48;;;;;;;5.05;2.88;;;;;;;16.87;39.23;94273.78;5030505;28;20037;-86
2022/04/17 05:29:14;;;;;;;4.85;3.08;;;;;;;16.84;39.83;94277.47;5014628;28;20051;-89
2022/04/17 05:31:39;;;;;;;5.13;3.25;;;;;;;16.83;39.53;94270.50;5032140;28;20047;-87
2022/04/17 05:34:05;;;;;;;6.70;3.55;;;;;;;16.86;39.64;94276.97;5014688;28;20555;-88
2022/04/17 05:36:30;;;;;;;7.07;3.20;;;;;;;16.85;39.22;94278.97;5031681;28;20040;-86
2022/04/17 05:38:56;;;;;;;7.78;3.22;;;;;;;16.85;39.90;94276.22;5028193;28;20082;-87
2022/04/17 05:41:24;;;;;;;8.32;3.83;;;;;;;16.84;39.68;94284.91;5027512;28;21571;-87
2022/04/17 05:43:49;;;;;;;8.20;3.15;;;;;;;16.85;39.70;94289.13;5028527;28;20107;-88
2022/04/17 05:46:15;;;;;;;12.40;4.38;;;;;;;16.85;39.73;94281.69;5028110;28;20045;-87
2022/04/17 05:48:40;;;;;;;7.25;3.33;;;;;;;16.85;39.65;94287.16;5027567;28;20561;-86
2022/04/17 05:51:05;;;;;;;6.60;3.33;;;;;;;16.84;39.28;94288.38;5030761;28;20051;-90
2022/04/17 05:53:31;;;;;;;8.95;3.53;;;;;;;16.87;39.54;94289.41;5025349;28;20037;-87
2022/04/17 05:55:56;;;;;;;6.63;3.55;;;;;;;16.86;39.41;94279.72;5027470;28;20344;-86
2022/04/17 05:58:22;;;;;;;9.88;4.22;;;;;;;16.86;39.56;94290.63;5011049;28;20148;-86
2022/04/17 06:00:47;;;;;;;9.38;3.58;;;;;;;16.87;39.80;94289.41;4995676;28;20026;-87
2022/04/17 06:03:15;;;;;;;8.75;3.75;;;;;;;16.87;39.60;94281.97;5029314;28;20044;-86
2022/04/17 06:05:41;;;;;;;7.80;3.50;;;;;;;16.89;39.44;94292.41;5047358;28;20040;-86
2022/04/17 06:08:06;;;;;;;7.68;3.33;;;;;;;16.88;39.29;94290.91;5046804;28;20552;-86
2022/04/17 06:10:32;;;;;;;5.78;3.17;;;;;;;16.89;39.21;94298.59;5014635;28;20045;-87
2022/04/17 06:12:57;;;;;;;8.77;3.47;;;;;;;16.90;39.41;94291.91;5014108;28;20498;-86
2022/04/17 06:15:23;;;;;;;7.63;3.45;;;;;;;16.89;39.31;94289.69;5010500;28;20041;-88
2022/04/17 06:17:48;;;;;;;6.80;3.70;;;;;;;16.93;39.12;94287.47;5010645;28;20080;-87
2022/04/17 06:20:14;;;;;;;10.45;3.78;;;;;;;16.93;39.29;94287.47;5010707;28;20499;-86
2022/04/17 06:22:39;;;;;;;8.50;3.72;;;;;;;16.95;39.45;94288.50;5044357;28;20103;-86
2022/04/17 06:25:10;;;;;;;7.65;4.05;;;;;;;16.95;39.61;94285.00;5028759;28;20033;-87
2022/04/17 06:27:39;;;;;;;9.73;3.70;;;;;;;16.98;39.54;94289.50;5019690;28;20038;-88
2022/04/17 06:30:11;;;;;;;6.43;3.67;;;;;;;16.97;39.42;94296.22;4994483;28;20083;-86
2022/04/17 06:32:38;;;;;;;10.68;3.67;;;;;;;16.99;39.13;94289.03;5003079;28;20451;-87
2022/04/17 06:35:04;;;;;;;6.10;3.17;;;;;;;17.00;39.32;94298.72;5030678;28;20028;-86
2022/04/17 06:37:29;;;;;;;7.07;3.50;;;;;;;17.01;39.57;94291.28;5009772;28;20212;-87
2022/04/17 06:39:57;;;;;;;7.75;3.70;;;;;;;17.00;39.40;94287.81;5030245;28;20410;-87
2022/04/17 06:42:22;;;;;;;11.73;3.42;;;;;;;17.01;39.25;94286.56;5013735;28;20080;-87
2022/04/17 06:44:47;;;;;;;9.93;4.50;;;;;;;17.02;39.55;94284.59;5014700;28;20029;-89
2022/04/17 06:47:13;;;;;;;6.43;3.55;;;;;;;17.02;39.44;94293.53;5013042;28;20502;-87
2022/04/17 06:49:38;;;;;;;9.85;3.88;;;;;;;17.04;39.04;94285.63;5046931;28;20087;-87
2022/04/17 06:52:04;;;;;;;6.30;3.53;;;;;;;17.03;39.27;94289.59;5029801;28;20032;-87
2022/04/17 06:54:29;;;;;;;7.75;3.67;;;;;;;17.05;39.22;94292.59;5029978;28;20382;-86
2022/04/17 06:56:54;;;;;;;10.55;4.05;;;;;;;17.05;39.64;94286.38;5046740;28;20033;-86
2022/04/17 06:59:20;;;;;;;7.25;3.92;;;;;;;17.04;39.35;94282.88;5026994;28;20052;-86
2022/04/17 07:01:45;;;;;;;9.20;3.45;;;;;;;17.06;39.24;94293.34;5023377;28;20037;-86
2022/04/17 07:04:11;;;;;;;7.85;3.45;;;;;;;17.06;39.24;94285.91;5043209;28;20395;-87
2022/04/17 07:06:36;;;;;;;7.20;3.75;;;;;;;17.09;39.29;94293.13;5030318;28;20450;-87
2022/04/17 07:09:01;;;;;;;6.65;3.72;;;;;;;17.09;39.15;94292.38;5030420;28;20036;-86
2022/04/17 07:11:27;;;;;;;7.85;3.13;;;;;;;17.10;39.33;94280.22;5045601;28;20414;-87
2022/04/17 07:13:53;;;;;;;7.70;3.28;;;;;;;17.12;39.13;94283.19;5030282;28;20037;-86
2022/04/17 07:16:18;;;;;;;6.40;3.83;;;;;;;17.13;39.01;94290.16;5029114;28;20047;-87
2022/04/17 07:18:44;;;;;;;8.02;3.25;;;;;;;17.14;39.36;94292.41;5029909;28;20434;-86
2022/04/17 07:21:09;;;;;;;5.65;3.10;;;;;;;17.17;39.26;94289.97;5022391;28;20462;-87
2022/04/17 07:23:34;;;;;;;6.05;3.28;;;;;;;17.19;39.34;94284.75;5009500;28;20033;-88
2022/04/17 07:26:00;;;;;;;4.95;3.15;;;;;;;17.20;39.20;94286.28;5012583;28;20037;-86
2022/04/17 07:28:25;;;;;;;5.72;2.83;;;;;;;17.19;38.90;94282.78;5009750;28;20038;-87
2022/04/17 07:30:52;;;;;;;6.55;3.63;;;;;;;17.23;39.09;94293.50;5026975;28;20048;-87
2022/04/17 07:33:17;;;;;;;6.53;3.22;;;;;;;17.24;39.25;94293.03;5037745;28;20572;-86
2022/04/17 07:35:43;;;;;;;5.32;2.88;;;;;;;17.23;39.03;94279.84;5013292;28;20052;-86
2022/04/17 07:38:08;;;;;;;5.47;3.05;;;;;;;17.25;39.34;94274.66;5011937;28;20033;-87
2022/04/17 07:40:34;;;;;;;5.78;2.85;;;;;;;17.24;38.87;94281.34;5010163;28;20399;-87
2022/04/17 07:43:01;;;;;;;7.05;2.90;;;;;;;17.26;39.14;94273.41;4993958;28;20029;-87
2022/04/17 07:45:27;;;;;;;4.82;2.90;;;;;;;17.26;39.07;94274.16;4988072;28;20523;-87
2022/04/17 07:47:52;;;;;;;4.53;2.65;;;;;;;17.28;38.84;94268.22;4988439;28;20036;-87
2022/04/17 07:50:19;;;;;;;4.50;2.60;;;;;;;17.30;39.16;94271.22;4995307;28;20042;-87
2022/04/17 07:52:45;;;;;;;5.32;2.90;;;;;;;17.31;38.61;94272.72;4991926;28;20427;-87
2022/04/17 07:55:11;;;;;;;4.93;2.55;;;;;;;17.30;38.80;94265.75;4991485;28;20037;-88
2022/04/17 08:00:24;;;;;;;6.07;2.83;;;;;;;17.33;38.45;94264.78;4996715;28;20064;-86
2022/04/17 08:03:06;;;;;;;4.18;2.60;;;;;;;17.34;38.55;94263.53;4981470;28;20117;-88
2022/04/17 08:05:31;;;;;;;4.28;2.60;;;;;;;17.33;38.61;94256.56;4976106;28;20060;-86
2022/04/17 08:07:57;;;;;;;3.63;2.85;;;;;;;17.36;38.86;94258.34;4972198;28;20038;-87
2022/04/17 08:10:22;;;;;;;6.22;3.17;;;;;;;17.32;38.28;94264.03;4972270;28;20046;-87
2022/04/17 08:12:50;;;;;;;5.75;3.10;;;;;;;17.35;38.58;94267.78;4972802;28;20041;-87
2022/04/17 08:15:18;;;;;;;3.78;2.70;;;;;;;17.33;38.69;94265.53;4971764;28;20045;-87
2022/04/17 08:17:43;;;;;;;4.20;3.00;;;;;;;17.35;38.77;94259.56;4993905;28;20053;-87
2022/04/17 08:20:10;;;;;;;4.40;2.55;;;;;;;17.37;38.29;94263.31;5009529;28;20030;-86
2022/04/17 08:22:35;;;;;;;5.10;3.05;;;;;;;17.37;38.29;94259.84;5026465;28;20043;-86
2022/04/17 08:25:01;;;;;;;6.40;3.08;;;;;;;17.36;38.83;94255.59;5012861;28;20033;-87
2022/04/17 08:27:26;;;;;;;4.55;2.97;;;;;;;17.36;38.63;94256.34;5024204;28;20059;-87
2022/04/17 08:29:52;;;;;;;5.40;2.97;;;;;;;17.37;38.60;94254.38;5027941;28;20087;-87
2022/04/17 08:32:17;;;;;;;4.70;3.17;;;;;;;17.36;38.81;94252.88;5016068;28;20029;-87
2022/04/17 08:34:42;;;;;;;4.63;2.75;;;;;;;17.35;38.56;94252.13;5049750;28;20036;-86
2022/04/17 08:37:08;;;;;;;5.07;2.42;;;;;;;17.36;38.62;94247.41;5015568;28;20041;-86
2022/04/17 08:39:33;;;;;;;5.90;2.60;;;;;;;17.35;38.69;94256.84;5001049;28;20038;-87
2022/04/17 08:42:00;;;;;;;4.80;3.28;;;;;;;17.36;38.59;94247.41;5029920;28;20051;-87
2022/04/17 08:44:25;;;;;;;5.70;2.70;;;;;;;17.35;38.58;94249.41;5012593;28;20079;-87
2022/04/17 08:46:52;;;;;;;5.72;3.15;;;;;;;17.37;38.92;94248.91;5029253;28;20049;-86
2022/04/17 08:49:17;;;;;;;4.10;2.65;;;;;;;17.36;38.36;94239.97;5012810;28;20049;-86
2022/04/17 08:51:48;;;;;;;4.03;2.50;;;;;;;17.38;38.83;94239.47;5026028;28;20048;-86
2022/04/17 08:54:13;;;;;;;4.13;2.72;;;;;;;17.38;38.66;94234.75;5012536;28;20079;-86
2022/04/17 08:56:38;;;;;;;5.57;3.05;;;;;;;17.40;38.24;94237.00;4995635;28;20487;-87
2022/04/17 08:59:05;;;;;;;4.18;2.53;;;;;;;17.37;38.71;94227.81;5012565;28;20034;-86
2022/04/17 09:01:30;;;;;;;3.63;2.60;;;;;;;17.36;38.76;94226.31;5002635;28;20115;-87
2022/04/17 09:03:56;;;;;;;7.05;2.90;;;;;;;17.37;38.47;94230.53;5032519;28;20025;-87
2022/04/17 09:06:21;;;;;;;5.22;2.95;;;;;;;17.38;38.43;94234.75;5031973;28;20049;-87
2022/04/17 09:08:57;;;;;;;6.00;3.10;;;;;;;17.36;38.48;94237.22;5032600;28;20045;-87
2022/04/17 09:11:29;;;;;;;5.50;2.78;;;;;;;17.36;38.81;94217.34;5032020;28;20037;-87
2022/04/17 09:13:56;;;;;;;7.63;3.33;;;;;;;17.36;38.68;94223.56;5033401;28;20037;-87
2022/04/17 09:16:29;;;;;;;4.45;2.78;;;;;;;17.36;38.31;94220.09;5030812;28;20029;-87
2022/04/17 09:18:58;;;;;;;4.88;2.88;;;;;;;17.38;38.45;94206.69;5032808;28;20029;-87
2022/04/17 09:21:33;;;;;;;4.95;2.97;;;;;;;17.37;38.92;94207.91;5013548;28;20044;-87
2022/04/17 09:24:20;;;;;;;4.38;2.72;;;;;;;17.37;39.07;94202.44;5016695;28;20565;-86
2022/04/17 09:26:52;;;;;;;6.78;3.50;;;;;;;17.36;39.13;94203.69;5011595;28;20099;-88
2022/04/17 09:29:20;;;;;;;5.03;2.40;;;;;;;17.36;38.72;94198.22;5012199;28;20497;-86
2022/04/17 09:31:46;;;;;;;5.93;3.30;;;;;;;17.36;38.70;94198.97;5012701;28;20110;-86
2022/04/17 09:34:11;;;;;;;5.22;2.75;;;;;;;17.38;38.52;94195.75;5014882;28;20037;-87
2022/04/17 09:36:38;;;;;;;3.63;2.63;;;;;;;17.37;38.93;94188.78;5015198;28;20041;-87
2022/04/17 09:39:14;;;;;;;4.18;2.58;;;;;;;17.38;38.62;94198.47;5014718;28;20040;-87
2022/04/17 09:42:01;;;;;;;4.72;2.60;;;;;;;17.38;38.49;94191.03;5028680;28;20041;-87
2022/04/17 09:44:37;;;;;;;3.75;2.88;;;;;;;17.38;38.79;94182.09;4990612;28;20049;-88
2022/04/17 09:47:06;;;;;;;4.93;3.20;;;;;;;17.37;38.61;94181.34;4957410;28;20124;-86
2022/04/17 09:49:40;;;;;;;5.85;3.10;;;;;;;17.37;38.36;94184.06;4975325;28;20053;-86
2022/04/17 09:52:07;;;;;;;6.20;2.70;;;;;;;17.38;38.55;94180.09;4970127;28;20042;-87
2022/04/17 09:54:32;;;;;;;4.13;2.80;;;;;;;17.40;38.71;94180.38;4938935;28;20034;-87
2022/04/17 09:56:57;;;;;;;4.88;2.65;;;;;;;17.40;38.96;94172.16;4954853;28;20031;-87
2022/04/17 09:59:23;;;;;;;3.72;2.60;;;;;;;17.38;38.69;94171.91;4954209;28;20209;-87
2022/04/17 10:01:52;;;;;;;4.90;2.95;;;;;;;17.38;38.62;94179.34;4939153;28;20117;-88
2022/04/17 10:04:20;;;;;;;7.38;2.90;;;;;;;17.40;38.83;94174.91;4951498;28;20046;-86
2022/04/17 10:06:47;;;;;;;5.43;3.03;;;;;;;17.40;38.46;94166.72;4970367;28;20505;-87
2022/04/17 10:09:13;;;;;;;4.63;2.88;;;;;;;17.39;38.68;94167.94;4970328;28;20101;-87
2022/04/17 10:11:39;;;;;;;3.55;2.70;;;;;;;17.38;38.52;94160.97;4971570;28;20034;-88
2022/04/17 10:14:05;;;;;;;4.55;3.15;;;;;;;17.40;38.70;94155.03;4957239;28;20177;-87
2022/04/17 10:16:31;;;;;;;6.20;3.38;;;;;;;17.42;38.70;94150.56;5044738;28;20495;-87
2022/04/17 10:18:57;;;;;;;4.60;2.78;;;;;;;17.40;38.81;94155.03;5031273;28;20044;-87
2022/04/17 10:21:25;;;;;;;3.70;2.42;;;;;;;17.41;38.93;94156.53;5029032;28;20044;-86
2022/04/17 10:23:50;;;;;;;3.97;2.50;;;;;;;17.41;38.92;94148.31;5031345;28;20063;-87
2022/04/17 10:26:16;;;;;;;3.25;2.58;;;;;;;17.42;38.66;94144.34;5013907;28;20037;-87
2022/04/17 10:28:44;;;;;;;3.17;2.35;;;;;;;17.41;38.98;94148.31;5027297;28;20045;-90
2022/04/17 10:31:14;;;;;;;3.22;2.65;;;;;;;17.42;38.58;94134.19;5011165;28;20045;-87
2022/04/17 10:34:06;;;;;;;4.78;3.13;;;;;;;17.41;38.70;94137.38;5037989;28;20076;-85
2022/04/17 10:37:08;;;;;;;3.78;3.08;;;;;;;17.41;38.48;94134.66;5012873;28;20403;-86
2022/04/17 10:39:38;;;;;;;4.10;2.72;;;;;;;17.41;38.74;94123.72;5036618;28;20114;-86
2022/04/17 10:42:07;;;;;;;5.30;3.10;;;;;;;17.41;38.68;94118.25;5011100;28;20044;-86
2022/04/17 10:44:37;;;;;;;4.43;2.83;;;;;;;17.42;38.38;94125.22;4995224;28;20033;-85
2022/04/17 10:47:03;;;;;;;3.83;2.47;;;;;;;17.40;38.63;94122.22;5010763;28;20577;-86
2022/04/17 10:49:29;;;;;;;3.13;2.55;;;;;;;17.42;38.63;94125.97;5010433;28;20038;-90
2022/04/17 10:51:55;;;;;;;3.85;2.80;;;;;;;17.41;38.63;94108.06;5035716;28;20037;-90
2022/04/17 10:54:21;;;;;;;4.35;1.98;;;;;;;17.40;39.00;94119.50;5029363;28;20045;-85
2022/04/17 10:56:55;;;;;;;4.07;2.30;;;;;;;17.40;38.84;94106.56;5028957;28;20501;-86
2022/04/17 10:59:27;;;;;;;3.10;2.33;;;;;;;17.40;38.94;94103.84;5045632;28;20399;-87
2022/04/17 11:02:03;;;;;;;3.42;2.63;;;;;;;17.40;38.78;94089.44;5014576;28;20030;-86
2022/04/17 11:04:42;;;;;;;4.18;2.60;;;;;;;17.39;38.72;94096.13;5024402;28;20084;-86
2022/04/17 11:07:07;;;;;;;3.90;2.97;;;;;;;17.42;38.62;94101.38;5046878;28;20136;-86
2022/04/17 11:09:33;;;;;;;3.95;2.67;;;;;;;17.40;38.46;94101.09;5030396;28;20633;-87
2022/04/17 11:12:17;;;;;;;2.75;2.28;;;;;;;17.41;38.61;94090.94;4997794;28;20033;-86
2022/04/17 11:14:52;;;;;;;3.45;2.50;;;;;;;17.40;39.04;94090.19;5021817;28;20064;-87
2022/04/17 11:17:19;;;;;;;3.88;2.60;;;;;;;17.40;38.50;94092.16;4977008;28;20095;-86
2022/04/17 11:19:44;;;;;;;3.15;2.53;;;;;;;17.40;38.85;94092.91;4980484;28;20064;-86
2022/04/17 11:22:10;;;;;;;3.20;2.65;;;;;;;17.41;38.61;94085.47;4988560;28;20061;-86
2022/04/17 11:24:54;;;;;;;5.53;3.08;;;;;;;17.40;38.68;94073.78;5024260;28;20038;-86
2022/04/17 11:27:31;;;;;;;3.58;2.38;;;;;;;17.41;38.87;94077.25;5030530;28;20029;-86
2022/04/17 11:29:57;;;;;;;4.10;2.50;;;;;;;17.41;39.15;94077.25;5015472;28;20055;-87
2022/04/17 11:32:29;;;;;;;4.65;2.42;;;;;;;17.41;39.06;94080.00;5011044;28;20138;-87
2022/04/17 11:34:55;;;;;;;3.63;2.67;;;;;;;17.40;38.83;94078.50;5029956;28;20060;-87
2022/04/17 11:37:25;;;;;;;2.45;2.17;;;;;;;17.40;38.78;94081.97;4996056;28;20117;-87
2022/04/17 11:39:51;;;;;;;2.70;2.30;;;;;;;17.41;38.68;94069.06;5010961;28;20044;-87
2022/04/17 11:42:16;;;;;;;5.22;3.05;;;;;;;17.41;38.65;94060.88;4994105;28;20495;-86
2022/04/17 11:44:42;;;;;;;2.60;2.25;;;;;;;17.40;38.67;94062.84;4993960;28;20036;-86
2022/04/17 11:47:18;;;;;;;3.40;2.53;;;;;;;17.39;38.42;94047.69;4993171;28;20147;-87
2022/04/17 11:49:44;;;;;;;2.28;2.03;;;;;;;17.41;38.22;94061.63;4993638;28;20038;-87
2022/04/17 11:52:18;;;;;;;2.97;2.50;;;;;;;17.39;38.28;94053.16;4981339;28;20045;-86